Terminal Aerodrome Forecast
Issued by NWS Wilmington, NC

Home | Current Version | Previous Version | Text Only | Print | Product List | Glossary On
Versions: 1 2 3 4 5 6 7 8 9 10 11 12
000
FTUS42 KILM 220500
TAFLBT
TAF
KLBT 220524Z 2206/2306 05008KT 6SM -RA BR SCT010 OVC020
      TEMPO 2208/2210 OVC010
     FM221000 03009KT 4SM -RA BR BKN008 OVC012
     FM221600 01007KT P6SM OVC008
     FM222300 02005KT 2SM BR OVC004=

USA.gov is the U.S. government's official web portal to all federal, state and local government web resources and services.